Time;durP1;ratioP1;P1;durP2;ratioP2;P2;SDS_P1;SDS_P2;PMS_P1;PMS_P2;Temp;Humidity;BMP_temperature;BMP_pressure;BME280_temperature;BME280_humidity;BME280_pressure;Samples;Min_cycle;Max_cycle;Signal;HPM_P1;HPM_P2
2022/01/04 00:00:29;;;;;;;21.73;4.60;;;;;;;6.93;100.00;99975.44;4731832;30;20050;-82
2022/01/04 00:03:12;;;;;;;26.80;5.03;;;;;;;6.96;100.00;99971.97;4705938;30;20074;-82
2022/01/04 00:05:41;;;;;;;17.48;4.25;;;;;;;6.95;100.00;99968.47;4728345;30;20060;-83
2022/01/04 00:08:12;;;;;;;26.50;4.75;;;;;;;6.96;100.00;99967.59;4699340;30;20052;-81
2022/01/04 00:10:41;;;;;;;19.83;6.35;;;;;;;6.98;100.00;99967.63;4717120;30;21076;-81
2022/01/04 00:13:26;;;;;;;26.48;5.25;;;;;;;6.98;100.00;99960.63;4732502;30;20055;-82
2022/01/04 00:15:56;;;;;;;24.40;5.18;;;;;;;6.99;100.00;99954.53;4704738;30;20354;-82
2022/01/04 00:18:25;;;;;;;24.80;6.13;;;;;;;6.99;100.00;99949.28;4716745;30;20060;-81
2022/01/04 00:20:54;;;;;;;27.27;6.07;;;;;;;6.99;100.00;99946.69;4728006;30;20365;-82
2022/01/04 00:23:25;;;;;;;35.80;5.72;;;;;;;6.97;100.00;99943.16;4723349;30;20075;-81
2022/01/04 00:25:55;;;;;;;26.42;7.35;;;;;;;6.96;100.00;99937.94;4712241;30;20079;-81
2022/01/04 00:28:24;;;;;;;18.65;5.53;;;;;;;6.95;100.00;99942.28;4708726;30;20063;-81
2022/01/04 00:30:52;;;;;;;27.27;5.90;;;;;;;6.92;100.00;99929.19;4707359;30;20269;-82
2022/01/04 00:33:22;;;;;;;28.80;5.80;;;;;;;6.91;100.00;99937.03;4719676;30;20055;-81
2022/01/04 00:35:51;;;;;;;23.25;5.65;;;;;;;6.87;100.00;99930.03;4699343;30;20185;-81
2022/01/04 00:38:19;;;;;;;23.02;7.05;;;;;;;6.85;100.00;99937.00;4723165;30;20055;-83
2022/01/04 00:40:48;;;;;;;26.67;6.50;;;;;;;6.82;100.00;99927.38;4707924;30;20438;-83
2022/01/04 00:43:17;;;;;;;22.15;6.18;;;;;;;6.79;100.00;99923.03;4730232;30;20424;-82
2022/01/04 00:45:46;;;;;;;32.47;7.55;;;;;;;6.77;100.00;99927.38;4730905;30;20051;-81
2022/01/04 00:50:43;;;;;;;27.67;7.03;;;;;;;6.72;100.00;99921.25;4730508;30;20055;-82
2022/01/04 00:53:12;;;;;;;24.08;6.43;;;;;;;6.71;100.00;99913.38;4689082;30;20134;-81
2022/01/04 00:55:43;;;;;;;27.73;7.20;;;;;;;6.70;100.00;99915.13;4737989;30;20060;-81
2022/01/04 00:58:12;;;;;;;31.73;7.75;;;;;;;6.69;100.00;99907.25;4699487;30;20049;-82
2022/01/04 01:00:40;;;;;;;36.58;7.05;;;;;;;6.70;100.00;99898.56;4733991;30;20060;-83
2022/01/04 01:03:09;;;;;;;30.15;7.25;;;;;;;6.69;100.00;99892.44;4711249;30;20051;-82
2022/01/04 01:05:38;;;;;;;28.58;6.95;;;;;;;6.70;100.00;99893.31;4733887;30;20430;-81
2022/01/04 01:08:07;;;;;;;31.98;7.32;;;;;;;6.67;100.00;99896.78;4756928;30;20063;-84
2022/01/04 01:13:04;;;;;;;29.58;6.95;;;;;;;6.67;100.00;99891.53;4730333;30;20136;-84
2022/01/04 01:15:32;;;;;;;24.38;7.05;;;;;;;6.66;100.00;99884.56;4743441;30;20064;-81
2022/01/04 01:18:02;;;;;;;31.42;7.15;;;;;;;6.64;100.00;99875.84;4724847;30;20065;-81
2022/01/04 01:20:30;;;;;;;21.60;6.47;;;;;;;6.61;100.00;99876.69;4728973;30;20602;-81
2022/01/04 01:22:59;;;;;;;37.65;8.23;;;;;;;6.61;100.00;99860.09;4731517;30;20331;-81
2022/01/04 01:25:28;;;;;;;32.28;8.07;;;;;;;6.60;100.00;99863.63;4713245;30;22001;-82
2022/01/04 01:27:56;;;;;;;46.03;7.97;;;;;;;6.59;100.00;99852.25;4729389;30;20056;-82
2022/01/04 01:30:26;;;;;;;31.67;8.77;;;;;;;6.58;100.00;99860.97;4739442;30;20177;-83
2022/01/04 01:32:55;;;;;;;28.92;7.85;;;;;;;6.58;100.00;99855.75;4715152;30;20519;-82
2022/01/04 01:35:23;;;;;;;29.40;8.38;;;;;;;6.59;100.00;99856.63;4701544;30;20059;-82
2022/01/04 01:37:52;;;;;;;30.33;8.23;;;;;;;6.57;100.00;99853.13;4701843;30;20523;-81
2022/01/04 01:40:21;;;;;;;29.90;8.27;;;;;;;6.56;100.00;99847.03;4686796;30;20099;-82
2022/01/04 01:42:52;;;;;;;31.25;8.77;;;;;;;6.55;100.00;99850.50;4712667;30;20048;-81
2022/01/04 01:45:23;;;;;;;27.95;7.88;;;;;;;6.56;100.00;99841.78;4707044;30;20181;-81
2022/01/04 01:47:52;;;;;;;34.30;8.25;;;;;;;6.57;100.00;99840.91;4729506;30;20056;-81
2022/01/04 01:50:21;;;;;;;33.83;8.02;;;;;;;6.58;100.00;99834.81;4704311;30;20063;-81
2022/01/04 01:52:52;;;;;;;43.15;8.68;;;;;;;6.61;100.00;99832.19;4720538;30;20067;-82
2022/01/04 01:55:23;;;;;;;31.23;7.97;;;;;;;6.61;100.00;99832.19;4714246;30;20197;-82
2022/01/04 01:57:53;;;;;;;31.70;8.18;;;;;;;6.63;100.00;99821.72;4704013;30;20067;-82
2022/01/04 02:00:26;;;;;;;37.73;9.27;;;;;;;6.64;100.00;99816.50;4719071;30;20574;-82
2022/01/04 02:02:55;;;;;;;30.83;9.20;;;;;;;6.66;100.00;99815.63;4735605;30;20519;-81
2022/01/04 02:05:24;;;;;;;24.48;8.45;;;;;;;6.67;100.00;99813.00;4717293;30;20076;-81
2022/01/04 02:07:52;;;;;;;24.60;8.70;;;;;;;6.69;100.00;99808.66;4729483;30;20039;-81
2022/01/04 02:10:21;;;;;;;31.33;8.90;;;;;;;6.71;100.00;99798.16;4750230;30;20039;-82
2022/01/04 02:12:50;;;;;;;35.50;8.95;;;;;;;6.73;100.00;99796.44;4716182;30;20052;-82
2022/01/04 02:15:20;;;;;;;30.98;8.00;;;;;;;6.75;100.00;99797.34;4735254;30;20530;-81
2022/01/04 02:17:49;;;;;;;30.75;8.40;;;;;;;6.78;100.00;99799.94;4733665;30;20052;-82
2022/01/04 02:20:18;;;;;;;32.17;8.52;;;;;;;6.80;100.00;99803.44;4732818;30;20259;-82
2022/01/04 02:22:48;;;;;;;29.90;8.10;;;;;;;6.82;100.00;99796.44;4754848;30;20052;-81
2022/01/04 02:25:17;;;;;;;30.73;9.00;;;;;;;6.86;100.00;99789.47;4750497;30;20772;-82
2022/01/04 02:27:46;;;;;;;31.63;8.32;;;;;;;6.87;100.00;99779.00;4722070;30;22137;-81
2022/01/04 02:30:18;;;;;;;35.08;8.65;;;;;;;6.90;100.00;99784.25;4764788;30;20070;-82
2022/01/04 02:32:48;;;;;;;31.77;8.45;;;;;;;6.92;100.00;99782.50;4736349;30;20051;-81
2022/01/04 02:35:19;;;;;;;30.85;9.20;;;;;;;6.93;100.00;99779.00;4738497;30;20587;-83
2022/01/04 02:37:48;;;;;;;25.73;7.80;;;;;;;6.93;100.00;99773.75;4754346;30;20059;-82
2022/01/04 02:40:17;;;;;;;27.80;8.65;;;;;;;6.94;100.00;99765.06;4753487;30;20044;-81
2022/01/04 02:42:45;;;;;;;35.08;9.05;;;;;;;6.93;100.00;99763.28;4705018;30;20063;-82
2022/01/04 02:45:16;;;;;;;28.02;8.55;;;;;;;6.94;100.00;99753.72;4750358;30;20064;-83
2022/01/04 02:47:45;;;;;;;22.63;7.70;;;;;;;6.93;100.00;99750.19;4727916;30;20048;-81
2022/01/04 02:50:13;;;;;;;30.05;7.90;;;;;;;6.94;100.00;99749.34;4740660;30;20505;-83
2022/01/04 02:52:42;;;;;;;30.83;7.82;;;;;;;6.94;100.00;99748.47;4739091;30;20051;-81
2022/01/04 02:55:16;;;;;;;27.83;7.82;;;;;;;6.93;100.00;99742.34;4766691;30;20056;-83
2022/01/04 02:57:45;;;;;;;32.53;7.65;;;;;;;6.93;100.00;99734.47;4736724;30;20410;-81
2022/01/04 03:00:16;;;;;;;34.80;8.45;;;;;;;6.93;100.00;99734.47;4729525;30;20048;-82
2022/01/04 03:02:45;;;;;;;26.30;7.32;;;;;;;6.92;100.00;99730.13;4751103;30;20048;-81
2022/01/04 03:05:14;;;;;;;24.35;7.10;;;;;;;6.91;100.00;99727.50;4721447;30;20063;-81
2022/01/04 03:07:43;;;;;;;24.95;6.53;;;;;;;6.91;100.00;99730.13;4781239;29;20044;-82
2022/01/04 03:10:11;;;;;;;33.72;8.50;;;;;;;6.92;100.00;99722.28;4766335;30;20414;-81
2022/01/04 03:12:42;;;;;;;31.10;6.93;;;;;;;6.93;100.00;99717.91;4708826;30;20043;-82
2022/01/04 03:15:12;;;;;;;32.30;6.85;;;;;;;6.95;100.00;99717.00;4727481;30;20050;-82
2022/01/04 03:17:42;;;;;;;32.95;6.97;;;;;;;6.96;100.00;99717.91;4756366;30;20060;-82
2022/01/04 03:20:11;;;;;;;26.53;7.00;;;;;;;6.97;100.00;99711.78;4746160;30;20048;-83
2022/01/04 03:22:40;;;;;;;36.03;8.35;;;;;;;6.96;100.00;99708.31;4753662;30;20075;-82
2022/01/04 03:25:09;;;;;;;32.13;6.85;;;;;;;6.97;100.00;99707.41;4778075;30;20054;-82
2022/01/04 03:27:38;;;;;;;32.97;7.40;;;;;;;6.98;100.00;99697.84;4734654;30;20051;-82
2022/01/04 03:30:07;;;;;;;37.53;6.72;;;;;;;6.96;100.00;99691.72;4784597;29;20059;-82
2022/01/04 03:32:39;;;;;;;29.63;7.43;;;;;;;6.98;100.00;99682.97;4754401;30;20055;-82
2022/01/04 03:35:08;;;;;;;39.30;8.07;;;;;;;6.99;100.00;99691.69;4754976;30;20048;-82
2022/01/04 03:37:37;;;;;;;37.65;7.70;;;;;;;6.98;100.00;99680.34;4737416;30;20066;-81
2022/01/04 03:40:06;;;;;;;29.45;7.18;;;;;;;6.97;100.00;99673.34;4723266;30;20137;-83
2022/01/04 03:42:35;;;;;;;34.33;7.50;;;;;;;6.98;100.00;99674.25;4781003;30;20047;-81
2022/01/04 03:45:04;;;;;;;29.67;6.88;;;;;;;6.97;100.00;99673.34;4718986;30;20056;-82
2022/01/04 03:47:33;;;;;;;34.35;7.25;;;;;;;6.98;100.00;99669.03;4748097;30;20063;-81
2022/01/04 03:50:04;;;;;;;33.63;7.55;;;;;;;6.97;100.00;99662.88;4770591;30;20051;-83
2022/01/04 03:52:35;;;;;;;;;;;;;;;6.97;100.00;99660.25;4757572;30;20074;-81
2022/01/04 03:55:06;;;;;;;25.90;7.13;;;;;;;6.97;100.00;99654.16;4759364;30;19950;-83
2022/01/04 03:57:36;;;;;;;38.63;7.93;;;;;;;6.96;100.00;99658.53;4732182;30;20063;-82
2022/01/04 04:00:07;;;;;;;38.40;7.82;;;;;;;6.96;100.00;99642.81;4725288;30;20055;-81
2022/01/04 04:02:42;;;;;;;34.42;8.98;;;;;;;6.96;100.00;99631.47;4768005;30;20035;-81
2022/01/04 04:05:10;;;;;;;25.90;7.93;;;;;;;6.97;100.00;99633.22;4728147;30;20407;-81
2022/01/04 04:07:39;;;;;;;38.03;9.05;;;;;;;6.96;100.00;99621.88;4753156;30;20058;-81
2022/01/04 04:10:08;;;;;;;34.63;8.73;;;;;;;6.97;100.00;99626.22;4709798;30;20059;-82
2022/01/04 04:12:37;;;;;;;37.67;9.00;;;;;;;6.97;100.00;99620.13;4771012;30;20043;-81
2022/01/04 04:15:08;;;;;;;27.45;7.78;;;;;;;6.96;100.00;99608.78;4738262;30;20055;-82
2022/01/04 04:17:37;;;;;;;33.63;9.35;;;;;;;6.96;100.00;99607.91;4717774;30;20081;-82
2022/01/04 04:20:07;;;;;;;32.25;8.80;;;;;;;6.95;100.00;99598.28;4763601;30;20051;-82
2022/01/04 04:22:35;;;;;;;40.90;8.57;;;;;;;6.94;100.00;99596.56;4753076;30;20395;-81
2022/01/04 04:25:08;;;;;;;31.55;7.72;;;;;;;6.91;100.00;99601.81;4765588;30;20059;-81
2022/01/04 04:27:37;;;;;;;35.10;9.60;;;;;;;6.90;100.00;99585.22;4715226;30;20052;-81
2022/01/04 04:30:06;;;;;;;25.98;7.97;;;;;;;6.90;100.00;99584.31;4703439;30;20054;-80
2022/01/04 04:32:35;;;;;;;34.78;7.90;;;;;;;6.88;100.00;99580.84;4731794;30;20059;-81
2022/01/04 04:35:04;;;;;;;36.83;8.77;;;;;;;6.88;100.00;99580.84;4769172;30;20093;-80
2022/01/04 04:37:32;;;;;;;29.80;8.65;;;;;;;6.88;100.00;99580.84;4753856;30;20055;-82
2022/01/04 04:40:02;;;;;;;33.10;8.82;;;;;;;6.87;100.00;99572.13;4723117;30;20531;-83
2022/01/04 04:42:30;;;;;;;45.13;9.10;;;;;;;6.89;100.00;99572.13;4732848;30;20060;-82
2022/01/04 04:45:00;;;;;;;23.75;8.13;;;;;;;6.89;100.00;99561.66;4714646;30;20067;-83
2022/01/04 04:47:29;;;;;;;35.03;8.65;;;;;;;6.89;100.00;99562.50;4734572;30;20063;-80
2022/01/04 04:49:58;;;;;;;35.40;9.13;;;;;;;6.89;100.00;99572.13;4746816;30;20064;-81
2022/01/04 04:52:29;;;;;;;34.08;8.57;;;;;;;6.88;100.00;99558.16;4732611;30;20032;-82
2022/01/04 04:54:58;;;;;;;29.52;7.78;;;;;;;6.89;100.00;99561.66;4713268;30;20268;-82
2022/01/04 04:57:26;;;;;;;29.40;8.65;;;;;;;6.90;100.00;99561.66;4716727;30;20059;-81
2022/01/04 04:59:55;;;;;;;32.60;8.48;;;;;;;6.89;100.00;99559.91;4736477;30;20090;-81
2022/01/04 05:02:23;;;;;;;51.05;9.55;;;;;;;6.89;100.00;99566.88;4720033;30;20040;-82
2022/01/04 05:04:52;;;;;;;40.50;8.98;;;;;;;6.89;100.00;99569.50;4734592;30;20048;-83
2022/01/04 05:07:21;;;;;;;38.58;9.07;;;;;;;6.89;100.00;99559.91;4748871;30;20063;-81
2022/01/04 05:09:49;;;;;;;44.78;10.15;;;;;;;6.90;100.00;99558.13;4725566;30;20284;-81
2022/01/04 05:12:18;;;;;;;37.85;9.27;;;;;;;6.89;100.00;99557.28;4754715;30;20399;-81
2022/01/04 05:14:47;;;;;;;34.53;10.10;;;;;;;6.89;100.00;99551.19;4748566;30;20239;-81
2022/01/04 05:17:19;;;;;;;31.88;9.57;;;;;;;6.87;100.00;99548.56;4739831;30;20048;-82
2022/01/04 05:19:48;;;;;;;36.20;9.10;;;;;;;6.87;100.00;99535.47;4750145;30;20306;-82
2022/01/04 05:22:16;;;;;;;38.42;8.60;;;;;;;6.85;100.00;99539.84;4730764;30;20059;-82
2022/01/04 05:24:45;;;;;;;37.33;10.23;;;;;;;6.85;100.00;99526.75;4771540;30;20557;-82
2022/01/04 05:27:13;;;;;;;33.30;9.60;;;;;;;6.85;100.00;99521.50;4748682;30;20060;-82
2022/01/04 05:29:42;;;;;;;35.15;8.65;;;;;;;6.84;100.00;99522.38;4742124;30;20055;-81
2022/01/04 05:32:11;;;;;;;38.63;9.88;;;;;;;6.85;100.00;99523.25;4736250;30;20411;-82
2022/01/04 05:34:39;;;;;;;31.05;9.63;;;;;;;6.84;100.00;99519.75;4739301;30;20284;-82
2022/01/04 05:37:08;;;;;;;38.13;10.23;;;;;;;6.83;100.00;99495.31;4800821;30;20043;-81
2022/01/04 05:39:36;;;;;;;29.67;9.85;;;;;;;6.82;100.00;99490.97;4743167;30;20518;-82
2022/01/04 05:42:08;;;;;;;38.30;10.60;;;;;;;6.85;100.00;99499.69;4738406;30;20048;-81
2022/01/04 05:44:39;;;;;;;32.60;10.48;;;;;;;6.82;100.00;99500.56;4764909;30;20066;-83
2022/01/04 05:47:07;;;;;;;34.17;10.35;;;;;;;6.83;100.00;99487.47;4749531;30;20047;-81
2022/01/04 05:49:37;;;;;;;42.58;11.18;;;;;;;6.82;100.00;99480.50;4740100;30;20055;-82
2022/01/04 05:52:06;;;;;;;47.90;12.02;;;;;;;6.83;100.00;99476.13;4743703;30;20056;-81
2022/01/04 05:54:34;;;;;;;32.08;10.98;;;;;;;6.83;100.00;99474.38;4745935;30;20043;-81
2022/01/04 05:57:06;;;;;;;26.33;10.80;;;;;;;6.85;100.00;99481.38;4775578;30;20051;-81
2022/01/04 05:59:52;;;;;;;38.03;12.00;;;;;;;6.86;100.00;99486.56;4757642;30;20066;-81
2022/01/04 06:02:20;;;;;;;39.80;13.48;;;;;;;6.87;100.00;99485.72;4731478;30;20379;-82
2022/01/04 06:04:52;;;;;;;38.22;10.77;;;;;;;6.88;100.00;99481.34;4744169;30;20047;-81
2022/01/04 06:07:20;;;;;;;31.80;11.05;;;;;;;6.88;100.00;99471.75;4745668;30;20035;-82
2022/01/04 06:09:52;;;;;;;35.10;11.68;;;;;;;6.87;100.00;99470.00;4743939;30;20047;-81
2022/01/04 06:15:05;;;;;;;29.98;11.23;;;;;;;6.86;100.00;99470.00;4753096;30;20059;-81
2022/01/04 06:17:38;;;;;;;36.13;11.23;;;;;;;6.86;100.00;99470.00;4737403;30;20553;-81
2022/01/04 06:20:12;;;;;;;42.15;13.23;;;;;;;6.86;100.00;99475.22;4761649;30;20043;-81
2022/01/04 06:22:41;;;;;;;39.70;12.43;;;;;;;6.86;100.00;99470.84;4738947;30;20278;-81
2022/01/04 06:25:12;;;;;;;32.35;11.25;;;;;;;6.86;100.00;99464.75;4766002;30;20060;-81
2022/01/04 06:27:42;;;;;;;31.73;11.43;;;;;;;6.85;100.00;99457.81;4713348;30;20300;-82
2022/01/04 06:30:22;;;;;;;32.25;12.85;;;;;;;6.83;100.00;99466.53;4721119;30;20060;-81
2022/01/04 06:32:51;;;;;;;32.08;12.32;;;;;;;6.82;100.00;99466.50;4678826;30;20087;-82
2022/01/04 06:35:20;;;;;;;37.97;12.80;;;;;;;6.82;100.00;99461.28;4702763;30;20053;-83
2022/01/04 06:37:49;;;;;;;34.45;12.32;;;;;;;6.81;100.00;99460.41;4707369;30;20084;-81
2022/01/04 06:40:18;;;;;;;36.45;12.27;;;;;;;6.83;100.00;99463.03;4739317;30;20057;-81
2022/01/04 06:42:46;;;;;;;41.80;13.02;;;;;;;6.82;100.00;99462.19;4693752;30;20063;-81
2022/01/04 06:45:15;;;;;;;37.88;13.48;;;;;;;6.83;100.00;99457.81;4681392;30;21534;-80
2022/01/04 06:47:45;;;;;;;35.67;12.97;;;;;;;6.83;100.00;99471.75;4655162;30;20049;-82
2022/01/04 06:50:15;;;;;;;37.42;13.93;;;;;;;6.84;100.00;99451.66;4683415;30;20151;-81
2022/01/04 06:52:44;;;;;;;30.30;12.88;;;;;;;6.84;100.00;99456.91;4704550;30;20064;-81
2022/01/04 06:55:15;;;;;;;36.85;11.00;;;;;;;6.83;100.00;99449.94;4702811;30;20069;-83
2022/01/04 06:57:44;;;;;;;22.85;8.65;;;;;;;6.79;100.00;99456.94;4716981;30;20531;-81
2022/01/04 07:00:13;;;;;;;16.60;4.03;;;;;;;6.67;100.00;99441.25;4708807;30;20055;-81
2022/01/04 07:02:42;;;;;;;14.30;3.72;;;;;;;6.55;100.00;99446.56;4730360;30;20774;-80
2022/01/04 07:05:11;;;;;;;11.93;3.17;;;;;;;6.47;100.00;99443.09;4709567;30;20054;-81
2022/01/04 07:07:39;;;;;;;13.57;3.15;;;;;;;6.43;100.00;99434.38;4747166;30;20044;-80
2022/01/04 07:10:08;;;;;;;13.45;3.47;;;;;;;6.42;100.00;99423.00;4739949;30;20529;-81
2022/01/04 07:12:37;;;;;;;18.80;5.07;;;;;;;6.43;100.00;99437.84;4744606;30;20055;-81
2022/01/04 07:15:06;;;;;;;28.52;8.45;;;;;;;6.46;100.00;99436.09;4719246;30;20490;-81
2022/01/04 07:17:38;;;;;;;26.42;7.55;;;;;;;6.52;100.00;99436.06;4726268;30;20519;-80
2022/01/04 07:20:07;;;;;;;28.63;10.82;;;;;;;6.56;100.00;99438.69;4730485;30;20055;-83
2022/01/04 07:22:36;;;;;;;35.13;12.82;;;;;;;6.61;100.00;99446.53;4713616;30;20052;-83
2022/01/04 07:25:05;;;;;;;34.75;13.55;;;;;;;6.64;100.00;99439.53;4715393;30;20526;-84
2022/01/04 07:27:34;;;;;;;33.72;11.23;;;;;;;6.69;100.00;99449.09;4699469;30;20081;-83
2022/01/04 07:30:03;;;;;;;24.98;6.50;;;;;;;6.67;100.00;99454.34;4708869;30;20055;-82
2022/01/04 07:32:32;;;;;;;13.15;3.70;;;;;;;6.58;100.00;99449.16;4750061;30;20546;-83
2022/01/04 07:35:00;;;;;;;4.90;1.67;;;;;;;6.31;100.00;99458.78;4687461;30;20499;-83
2022/01/04 07:37:29;;;;;;;5.90;1.65;;;;;;;6.12;100.00;99447.50;4725769;30;20276;-83
2022/01/04 07:39:57;;;;;;;4.70;1.92;;;;;;;6.02;100.00;99453.63;4724387;30;20466;-81
2022/01/04 07:42:26;;;;;;;3.80;1.40;;;;;;;5.89;100.00;99454.47;4677242;30;20371;-81
2022/01/04 07:44:54;;;;;;;4.20;1.35;;;;;;;5.86;100.00;99450.13;4716256;30;20040;-82
2022/01/04 07:47:23;;;;;;;8.73;1.52;;;;;;;5.84;100.00;99437.03;4734132;30;20357;-81
2022/01/04 07:49:52;;;;;;;9.13;2.33;;;;;;;5.86;100.00;99450.97;4691760;30;20052;-80
2022/01/04 07:52:20;;;;;;;9.95;2.75;;;;;;;5.88;100.00;99447.47;4678064;30;20340;-80
2022/01/04 07:54:48;;;;;;;12.05;2.38;;;;;;;5.88;100.00;99432.69;4712213;30;20059;-80
2022/01/04 07:57:17;;;;;;;7.95;1.80;;;;;;;5.89;100.00;99423.09;4705158;30;20710;-80
2022/01/04 07:59:46;;;;;;;8.55;1.67;;;;;;;5.89;100.00;99412.63;4746521;30;20408;-81
2022/01/04 08:02:15;;;;;;;10.20;1.75;;;;;;;5.91;100.00;99416.13;4683358;30;20066;-80
2022/01/04 08:04:43;;;;;;;11.75;1.98;;;;;;;5.92;100.00;99417.88;4712403;30;20060;-80
2022/01/04 08:07:12;;;;;;;9.02;1.65;;;;;;;5.91;100.00;99414.38;4718105;30;20064;-80
2022/01/04 08:09:41;;;;;;;9.55;1.77;;;;;;;5.94;100.00;99410.91;4702445;30;20063;-80
2022/01/04 08:12:10;;;;;;;8.25;1.73;;;;;;;5.94;100.00;99419.59;4708308;30;20051;-81
2022/01/04 08:14:39;;;;;;;7.40;1.90;;;;;;;5.95;100.00;99420.47;4706823;30;20539;-80
2022/01/04 08:17:07;;;;;;;11.63;1.92;;;;;;;5.95;100.00;99412.63;4707230;30;20391;-80
2022/01/04 08:19:36;;;;;;;9.85;2.30;;;;;;;5.96;100.00;99410.03;4714181;30;20052;-80
2022/01/04 08:22:08;;;;;;;16.55;2.88;;;;;;;5.98;100.00;99408.28;4709012;30;20059;-80
2022/01/04 08:24:36;;;;;;;10.82;2.80;;;;;;;5.99;100.00;99399.59;4718684;30;20065;-82
2022/01/04 08:27:05;;;;;;;9.85;2.95;;;;;;;6.01;100.00;99400.44;4696582;30;20060;-81
2022/01/04 08:29:34;;;;;;;13.73;2.60;;;;;;;6.02;100.00;99396.94;4718913;30;20044;-81
2022/01/04 08:32:06;;;;;;;10.07;2.60;;;;;;;6.04;100.00;99387.34;4732391;30;20526;-80
2022/01/04 08:34:35;;;;;;;12.82;4.20;;;;;;;6.07;100.00;99385.59;4716660;30;20044;-81
2022/01/04 08:37:03;;;;;;;18.25;4.53;;;;;;;6.10;100.00;99388.22;4708918;30;20056;-80
2022/01/04 08:39:32;;;;;;;15.60;5.13;;;;;;;6.13;100.00;99404.78;4686801;30;20056;-81
2022/01/04 08:42:02;;;;;;;22.60;5.40;;;;;;;6.16;100.00;99402.19;4747604;30;20048;-80
2022/01/04 08:44:32;;;;;;;18.52;5.32;;;;;;;6.20;100.00;99414.38;4701438;30;20056;-82
2022/01/04 08:47:03;;;;;;;15.98;4.55;;;;;;;6.22;100.00;99420.47;4707256;30;20049;-80
2022/01/04 08:49:31;;;;;;;19.15;5.22;;;;;;;6.25;100.00;99412.59;4711976;30;20067;-81
2022/01/04 08:52:02;;;;;;;26.55;5.47;;;;;;;6.29;100.00;99417.81;4743193;30;20064;-81
2022/01/04 08:54:34;;;;;;;25.27;5.97;;;;;;;6.32;100.00;99415.22;4707664;30;20047;-81
2022/01/04 08:57:04;;;;;;;24.50;6.00;;;;;;;6.36;100.00;99416.94;4710110;30;20048;-79
2022/01/04 08:59:33;;;;;;;25.15;7.25;;;;;;;6.37;100.00;99416.06;4720361;30;20048;-81
2022/01/04 09:02:05;;;;;;;27.80;6.75;;;;;;;6.40;100.00;99429.13;4751378;30;20064;-81
2022/01/04 09:04:33;;;;;;;23.42;5.78;;;;;;;6.41;100.00;99426.53;4731504;30;20064;-81
2022/01/04 09:07:03;;;;;;;18.27;5.10;;;;;;;6.41;100.00;99438.75;4728115;30;20503;-80
2022/01/04 09:09:32;;;;;;;18.48;3.78;;;;;;;6.41;100.00;99443.97;4707131;30;20065;-81
2022/01/04 09:12:23;;;;;;;15.55;2.67;;;;;;;6.41;100.00;99443.97;4731848;30;20052;-81
2022/01/04 09:14:59;;;;;;;13.15;2.97;;;;;;;6.36;100.00;99443.09;4707949;30;20514;-80
2022/01/04 09:20:15;;;;;;;7.57;1.67;;;;;;;6.29;100.00;99449.22;4710854;30;20056;-80
2022/01/04 09:22:44;;;;;;;7.10;1.73;;;;;;;6.27;100.00;99458.81;4707274;30;20273;-80
2022/01/04 09:25:12;;;;;;;5.55;1.23;;;;;;;6.21;100.00;99462.31;4700708;30;20063;-81
2022/01/04 09:27:41;;;;;;;10.68;1.50;;;;;;;6.18;100.00;99467.53;4720358;30;20138;-80
2022/01/04 09:30:10;;;;;;;3.55;1.33;;;;;;;6.15;100.00;99475.41;4695995;30;20061;-82
2022/01/04 09:32:38;;;;;;;8.05;1.50;;;;;;;6.12;100.00;99483.25;4699376;30;20586;-81
2022/01/04 09:35:08;;;;;;;7.93;1.50;;;;;;;6.09;100.00;99488.47;4718464;30;20055;-81
2022/01/04 09:37:39;;;;;;;5.28;1.10;;;;;;;6.05;100.00;99479.78;4722810;30;20083;-80
2022/01/04 09:40:09;;;;;;;5.18;1.58;;;;;;;6.01;100.00;99480.63;4715013;30;20055;-81
2022/01/04 09:42:38;;;;;;;5.22;1.10;;;;;;;6.01;100.00;99478.00;4708930;30;20061;-80
2022/01/04 09:45:07;;;;;;;8.95;1.77;;;;;;;5.99;100.00;99485.00;4726189;30;20554;-81
2022/01/04 09:47:36;;;;;;;1.23;0.80;;;;;;;5.99;100.00;99483.25;4720614;30;20392;-82
2022/01/04 09:50:08;;;;;;;3.85;1.42;;;;;;;5.99;100.00;99487.59;4747547;30;20047;-80
2022/01/04 09:52:44;;;;;;;4.63;0.70;;;;;;;5.97;100.00;99500.69;4711786;30;20045;-81
2022/01/04 09:55:14;;;;;;;9.77;1.10;;;;;;;5.97;100.00;99499.81;4704431;30;20430;-80
2022/01/04 09:57:46;;;;;;;7.55;1.23;;;;;;;5.95;100.00;99497.19;4709928;30;20047;-80
2022/01/04 10:00:17;;;;;;;7.30;1.10;;;;;;;5.95;100.00;99501.53;4748005;30;20056;-80
2022/01/04 10:02:49;;;;;;;7.97;1.30;;;;;;;5.94;100.00;99499.78;4744866;30;20443;-81
2022/01/04 10:05:25;;;;;;;4.68;1.02;;;;;;;5.92;100.00;99489.31;4749009;30;20048;-82
2022/01/04 10:08:03;;;;;;;4.72;1.15;;;;;;;5.92;100.00;99498.94;4742826;30;20503;-81
2022/01/04 10:10:36;;;;;;;6.18;1.20;;;;;;;5.91;100.00;99498.03;4745217;30;20063;-79
2022/01/04 10:13:15;;;;;;;4.22;1.20;;;;;;;5.85;100.00;99501.50;4770152;30;20051;-81
2022/01/04 10:15:48;;;;;;;3.15;0.80;;;;;;;5.80;100.00;99499.75;4770488;29;20059;-80
2022/01/04 10:18:28;;;;;;;2.90;1.15;;;;;;;5.77;100.00;99503.25;4723059;30;20363;-80
2022/01/04 10:21:02;;;;;;;2.78;0.90;;;;;;;5.73;100.00;99506.75;4715441;30;20074;-81
2022/01/04 10:23:31;;;;;;;3.63;1.00;;;;;;;5.69;100.00;99511.94;4749932;30;20521;-81
2022/01/04 10:26:06;;;;;;;3.30;1.05;;;;;;;5.64;100.00;99506.72;4737426;30;20047;-81
2022/01/04 10:28:36;;;;;;;1.17;0.73;;;;;;;5.56;100.00;99511.94;4750430;30;20044;-81
2022/01/04 10:31:12;;;;;;;2.00;1.05;;;;;;;5.45;100.00;99517.13;4768200;30;20335;-81
2022/01/04 10:33:41;;;;;;;2.50;1.00;;;;;;;5.39;100.00;99509.28;4754429;29;20051;-81
2022/01/04 10:36:11;;;;;;;3.47;0.95;;;;;;;5.36;100.00;99511.88;4717065;30;20052;-80
2022/01/04 10:38:43;;;;;;;7.47;1.00;;;;;;;5.33;100.00;99511.00;4746010;30;20538;-81
2022/01/04 10:41:23;;;;;;;4.35;0.90;;;;;;;5.33;100.00;99518.81;4717760;30;20253;-80
2022/01/04 10:44:06;;;;;;;2.10;1.10;;;;;;;5.34;100.00;99512.75;4746918;30;20062;-80
2022/01/04 10:46:44;;;;;;;1.52;0.80;;;;;;;5.29;100.00;99515.31;4770887;30;20056;-82
2022/01/04 10:49:15;;;;;;;1.92;0.70;;;;;;;5.24;100.00;99510.09;4737073;30;20292;-81
2022/01/04 10:51:45;;;;;;;5.30;0.85;;;;;;;5.23;100.00;99513.56;4742644;30;20620;-82
2022/01/04 10:54:19;;;;;;;11.48;1.15;;;;;;;5.22;100.00;99524.91;4728374;30;20043;-82
2022/01/04 10:56:47;;;;;;;5.30;1.00;;;;;;;5.23;100.00;99515.31;4702125;30;20059;-81
2022/01/04 10:59:16;;;;;;;5.90;1.55;;;;;;;5.23;100.00;99510.09;4705793;30;20276;-80
2022/01/04 11:01:50;;;;;;;3.00;1.15;;;;;;;5.23;100.00;99516.19;4740698;30;20043;-81
2022/01/04 11:04:20;;;;;;;1.88;1.00;;;;;;;5.22;100.00;99513.59;4749416;30;20283;-80
2022/01/04 11:06:56;;;;;;;2.17;1.17;;;;;;;5.18;100.00;99515.31;4748770;30;20048;-83
2022/01/04 11:09:26;;;;;;;4.40;1.08;;;;;;;5.11;100.00;99504.84;4757518;30;20063;-83
2022/01/04 11:11:54;;;;;;;2.90;1.17;;;;;;;5.10;100.00;99506.56;4723062;30;20047;-84
2022/01/04 11:14:25;;;;;;;3.28;0.90;;;;;;;5.11;100.00;99495.25;4725108;30;20141;-83
2022/01/04 11:16:54;;;;;;;5.38;1.05;;;;;;;5.14;100.00;99494.38;4734422;30;20059;-84
2022/01/04 11:19:23;;;;;;;3.85;1.15;;;;;;;5.18;100.00;99496.13;4756872;30;20527;-81
2022/01/04 11:21:53;;;;;;;3.67;1.10;;;;;;;5.21;100.00;99498.78;4714132;30;20060;-82
2022/01/04 11:24:25;;;;;;;6.68;1.52;;;;;;;5.14;100.00;99507.44;4741298;30;20050;-82
2022/01/04 11:26:56;;;;;;;7.95;1.23;;;;;;;5.06;100.00;99503.06;4718367;30;20059;-82
2022/01/04 11:29:28;;;;;;;9.02;1.38;;;;;;;5.01;100.00;99511.75;4725452;30;20051;-81
2022/01/04 11:32:01;;;;;;;6.70;1.40;;;;;;;4.97;100.00;99518.72;4734585;30;20472;-82
2022/01/04 11:35:03;;;;;;;2.45;1.05;;;;;;;4.95;100.00;99523.03;4729392;30;20044;-83
2022/01/04 11:37:32;;;;;;;4.97;1.30;;;;;;;4.93;100.00;99529.97;4756514;30;20051;-81
2022/01/04 11:40:40;;;;;;;6.57;1.92;;;;;;;4.94;100.00;99531.75;4736509;30;20070;-81
2022/01/04 11:43:33;;;;;;;9.00;1.33;;;;;;;4.97;100.00;99528.25;4727587;30;20285;-81
2022/01/04 11:46:02;;;;;;;4.47;1.20;;;;;;;4.99;100.00;99529.13;4726635;30;20056;-82
2022/01/04 11:48:43;;;;;;;5.38;1.58;;;;;;;5.03;100.00;99531.78;4763705;30;20055;-83
2022/01/04 11:51:24;;;;;;;3.75;1.58;;;;;;;5.07;100.00;99536.16;4732754;30;20219;-82